sensor_id;sensor_type;location;lat;lon;timestamp;pressure;altitude;pressure_sealevel;temperature;humidity
74552;BME280;63025;55.472;38.432;2023-05-07T00:00:04;101271.06;;;-0.49;67.45
74552;BME280;63025;55.472;38.432;2023-05-07T00:02:35;101266.22;;;-0.55;67.22
74552;BME280;63025;55.472;38.432;2023-05-07T00:05:03;101262.09;;;-0.59;67.53
74552;BME280;63025;55.472;38.432;2023-05-07T00:07:31;101267.81;;;-0.52;68.06
74552;BME280;63025;55.472;38.432;2023-05-07T00:09:57;101263.50;;;-0.53;68.25
74552;BME280;63025;55.472;38.432;2023-05-07T00:12:38;101265.50;;;-0.57;68.22
74552;BME280;63025;55.472;38.432;2023-05-07T00:15:05;101269.81;;;-0.56;68.68
74552;BME280;63025;55.472;38.432;2023-05-07T00:17:34;101274.47;;;-0.59;68.61
74552;BME280;63025;55.472;38.432;2023-05-07T00:20:00;101279.13;;;-0.63;68.43
74552;BME280;63025;55.472;38.432;2023-05-07T00:22:25;101280.09;;;-0.64;68.50
74552;BME280;63025;55.472;38.432;2023-05-07T00:24:51;101279.44;;;-0.67;68.01
74552;BME280;63025;55.472;38.432;2023-05-07T00:27:17;101272.69;;;-0.71;67.66
74552;BME280;63025;55.472;38.432;2023-05-07T00:29:43;101286.09;;;-0.75;67.83
74552;BME280;63025;55.472;38.432;2023-05-07T00:32:09;101273.31;;;-0.81;68.02
74552;BME280;63025;55.472;38.432;2023-05-07T00:34:34;101284.22;;;-0.85;68.24
74552;BME280;63025;55.472;38.432;2023-05-07T00:37:01;101287.69;;;-0.85;68.13
74552;BME280;63025;55.472;38.432;2023-05-07T00:39:27;101281.78;;;-0.88;68.40
74552;BME280;63025;55.472;38.432;2023-05-07T00:41:52;101283.06;;;-0.94;68.71
74552;BME280;63025;55.472;38.432;2023-05-07T00:44:18;101284.53;;;-0.90;68.17
74552;BME280;63025;55.472;38.432;2023-05-07T00:46:44;101291.69;;;-0.92;68.38
74552;BME280;63025;55.472;38.432;2023-05-07T00:49:11;101279.66;;;-0.96;68.37
74552;BME280;63025;55.472;38.432;2023-05-07T00:51:37;101278.28;;;-1.01;68.63
74552;BME280;63025;55.472;38.432;2023-05-07T00:54:03;101280.06;;;-1.02;68.73
74552;BME280;63025;55.472;38.432;2023-05-07T00:56:29;101282.94;;;-1.05;69.25
74552;BME280;63025;55.472;38.432;2023-05-07T00:58:55;101283.88;;;-1.06;69.71
74552;BME280;63025;55.472;38.432;2023-05-07T01:01:20;101286.44;;;-1.04;69.46
74552;BME280;63025;55.472;38.432;2023-05-07T01:03:47;101279.38;;;-1.04;69.75
74552;BME280;63025;55.472;38.432;2023-05-07T01:06:13;101282.09;;;-1.05;69.69
74552;BME280;63025;55.472;38.432;2023-05-07T01:08:42;101277.97;;;-1.09;69.61
74552;BME280;63025;55.472;38.432;2023-05-07T01:11:08;101272.88;;;-1.13;69.33
74552;BME280;63025;55.472;38.432;2023-05-07T01:13:36;101276.16;;;-1.22;69.74
74552;BME280;63025;55.472;38.432;2023-05-07T01:16:03;101290.19;;;-1.21;69.41
74552;BME280;63025;55.472;38.432;2023-05-07T01:18:29;101284.91;;;-1.21;69.64
74552;BME280;63025;55.472;38.432;2023-05-07T01:20:58;101285.25;;;-1.26;69.31
74552;BME280;63025;55.472;38.432;2023-05-07T01:23:25;101286.81;;;-1.23;69.59
74552;BME280;63025;55.472;38.432;2023-05-07T01:25:54;101285.09;;;-1.24;69.44
74552;BME280;63025;55.472;38.432;2023-05-07T01:28:22;101291.56;;;-1.28;69.16
74552;BME280;63025;55.472;38.432;2023-05-07T01:30:51;101295.88;;;-1.27;69.26
74552;BME280;63025;55.472;38.432;2023-05-07T01:33:20;101298.63;;;-1.29;69.66
74552;BME280;63025;55.472;38.432;2023-05-07T01:35:53;101300.41;;;-1.29;69.75
74552;BME280;63025;55.472;38.432;2023-05-07T01:38:20;101300.41;;;-1.29;69.21
74552;BME280;63025;55.472;38.432;2023-05-07T01:40:47;101303.06;;;-1.29;69.46
74552;BME280;63025;55.472;38.432;2023-05-07T01:43:13;101309.47;;;-1.33;69.40
74552;BME280;63025;55.472;38.432;2023-05-07T01:45:40;101294.41;;;-1.31;69.87
74552;BME280;63025;55.472;38.432;2023-05-07T01:48:07;101305.69;;;-1.29;69.85
74552;BME280;63025;55.472;38.432;2023-05-07T01:50:33;101304.09;;;-1.32;69.56
74552;BME280;63025;55.472;38.432;2023-05-07T01:53:01;101311.63;;;-1.26;69.86
74552;BME280;63025;55.472;38.432;2023-05-07T01:55:28;101310.03;;;-1.28;69.70
74552;BME280;63025;55.472;38.432;2023-05-07T01:57:53;101315.09;;;-1.25;69.82
74552;BME280;63025;55.472;38.432;2023-05-07T02:00:20;101302.63;;;-1.23;70.09
74552;BME280;63025;55.472;38.432;2023-05-07T02:02:45;101313.72;;;-1.18;69.98
74552;BME280;63025;55.472;38.432;2023-05-07T02:05:24;101314.25;;;-1.13;69.49
74552;BME280;63025;55.472;38.432;2023-05-07T02:07:57;101319.22;;;-1.08;70.15
74552;BME280;63025;55.472;38.432;2023-05-07T02:10:25;101316.16;;;-1.02;69.84
74552;BME280;63025;55.472;38.432;2023-05-07T02:12:50;101325.47;;;-0.97;69.80
74552;BME280;63025;55.472;38.432;2023-05-07T02:15:17;101331.38;;;-0.93;69.72
74552;BME280;63025;55.472;38.432;2023-05-07T02:18:01;101333.91;;;-0.92;69.22
74552;BME280;63025;55.472;38.432;2023-05-07T02:20:28;101336.34;;;-0.89;69.43
74552;BME280;63025;55.472;38.432;2023-05-07T02:22:54;101344.81;;;-0.84;69.43
74552;BME280;63025;55.472;38.432;2023-05-07T02:25:20;101345.88;;;-0.73;69.40
74552;BME280;63025;55.472;38.432;2023-05-07T02:27:46;101349.22;;;-0.71;69.46
74552;BME280;63025;55.472;38.432;2023-05-07T02:30:14;101352.22;;;-0.63;69.45
74552;BME280;63025;55.472;38.432;2023-05-07T02:32:40;101361.38;;;-0.56;69.63
74552;BME280;63025;55.472;38.432;2023-05-07T02:35:06;101359.78;;;-0.46;69.70
74552;BME280;63025;55.472;38.432;2023-05-07T02:37:32;101356.72;;;-0.40;69.54
74552;BME280;63025;55.472;38.432;2023-05-07T02:39:58;101351.88;;;-0.33;69.58
74552;BME280;63025;55.472;38.432;2023-05-07T02:42:24;101354.59;;;-0.22;68.91
74552;BME280;63025;55.472;38.432;2023-05-07T02:44:49;101358.19;;;-0.11;69.83
74552;BME280;63025;55.472;38.432;2023-05-07T02:47:16;101365.34;;;0.00;69.26
74552;BME280;63025;55.472;38.432;2023-05-07T02:49:43;101364.34;;;0.14;69.62
74552;BME280;63025;55.472;38.432;2023-05-07T02:52:09;101365.06;;;0.28;69.45
74552;BME280;63025;55.472;38.432;2023-05-07T02:54:34;101372.69;;;0.44;69.63
74552;BME280;63025;55.472;38.432;2023-05-07T02:57:00;101366.41;;;0.58;69.79
74552;BME280;63025;55.472;38.432;2023-05-07T02:59:28;101375.84;;;0.73;69.47
74552;BME280;63025;55.472;38.432;2023-05-07T03:01:54;101379.38;;;0.85;68.74
74552;BME280;63025;55.472;38.432;2023-05-07T03:04:20;101380.28;;;0.96;68.80
74552;BME280;63025;55.472;38.432;2023-05-07T03:06:46;101383.59;;;1.11;68.52
74552;BME280;63025;55.472;38.432;2023-05-07T03:09:12;101387.69;;;1.26;68.86
74552;BME280;63025;55.472;38.432;2023-05-07T03:11:38;101384.00;;;1.40;68.62
74552;BME280;63025;55.472;38.432;2023-05-07T03:14:04;101393.06;;;1.48;68.17
74552;BME280;63025;55.472;38.432;2023-05-07T03:16:30;101380.66;;;1.60;68.20
74552;BME280;63025;55.472;38.432;2023-05-07T03:18:56;101385.03;;;1.72;68.39
74552;BME280;63025;55.472;38.432;2023-05-07T03:21:22;101390.69;;;1.79;67.62
74552;BME280;63025;55.472;38.432;2023-05-07T03:23:49;101396.59;;;1.94;67.51
74552;BME280;63025;55.472;38.432;2023-05-07T03:26:15;101392.72;;;2.09;67.20
74552;BME280;63025;55.472;38.432;2023-05-07T03:28:42;101403.81;;;2.25;67.18
74552;BME280;63025;55.472;38.432;2023-05-07T03:31:11;101399.44;;;2.35;67.62
74552;BME280;63025;55.472;38.432;2023-05-07T03:33:52;101389.66;;;2.47;66.93
74552;BME280;63025;55.472;38.432;2023-05-07T03:36:19;101404.44;;;2.61;66.26
74552;BME280;63025;55.472;38.432;2023-05-07T03:38:45;101401.88;;;2.70;66.64
74552;BME280;63025;55.472;38.432;2023-05-07T03:41:11;101406.09;;;2.73;65.46
74552;BME280;63025;55.472;38.432;2023-05-07T03:43:38;101405.34;;;2.82;64.97
74552;BME280;63025;55.472;38.432;2023-05-07T03:46:08;101400.63;;;2.85;64.90
74552;BME280;63025;55.472;38.432;2023-05-07T03:48:34;101402.28;;;2.98;64.48
74552;BME280;63025;55.472;38.432;2023-05-07T03:51:00;101407.69;;;3.07;64.57
74552;BME280;63025;55.472;38.432;2023-05-07T03:53:30;101403.47;;;3.05;63.13
74552;BME280;63025;55.472;38.432;2023-05-07T03:55:56;101411.97;;;3.19;63.15
74552;BME280;63025;55.472;38.432;2023-05-07T03:58:22;101408.41;;;3.30;63.05
74552;BME280;63025;55.472;38.432;2023-05-07T04:00:48;101411.69;;;3.43;62.88
74552;BME280;63025;55.472;38.432;2023-05-07T04:03:21;101415.84;;;3.57;62.37
74552;BME280;63025;55.472;38.432;2023-05-07T04:05:47;101414.56;;;3.72;61.85
74552;BME280;63025;55.472;38.432;2023-05-07T04:08:13;101413.81;;;3.91;62.31
74552;BME280;63025;55.472;38.432;2023-05-07T04:10:42;101414.94;;;3.98;60.96
74552;BME280;63025;55.472;38.432;2023-05-07T04:13:10;101417.34;;;4.01;59.91
74552;BME280;63025;55.472;38.432;2023-05-07T04:15:36;101408.91;;;3.96;59.72
74552;BME280;63025;55.472;38.432;2023-05-07T04:18:05;101427.38;;;3.88;58.39
74552;BME280;63025;55.472;38.432;2023-05-07T04:20:33;101420.22;;;3.88;59.29
74552;BME280;63025;55.472;38.432;2023-05-07T04:23:03;101421.78;;;3.91;58.65
74552;BME280;63025;55.472;38.432;2023-05-07T04:25:29;101419.44;;;3.97;58.17
74552;BME280;63025;55.472;38.432;2023-05-07T04:28:02;101423.94;;;4.06;57.99
74552;BME280;63025;55.472;38.432;2023-05-07T04:30:29;101420.34;;;4.17;58.33
74552;BME280;63025;55.472;38.432;2023-05-07T04:32:55;101422.53;;;4.33;57.90
74552;BME280;63025;55.472;38.432;2023-05-07T04:35:22;101429.25;;;4.37;57.21
74552;BME280;63025;55.472;38.432;2023-05-07T04:37:49;101428.84;;;4.41;57.32
74552;BME280;63025;55.472;38.432;2023-05-07T04:40:14;101430.44;;;4.54;57.15
74552;BME280;63025;55.472;38.432;2023-05-07T04:42:42;101435.91;;;4.62;57.01
74552;BME280;63025;55.472;38.432;2023-05-07T04:45:08;101433.41;;;4.70;56.67
74552;BME280;63025;55.472;38.432;2023-05-07T04:47:37;101437.59;;;4.72;56.36
74552;BME280;63025;55.472;38.432;2023-05-07T04:50:03;101438.47;;;4.83;56.41
74552;BME280;63025;55.472;38.432;2023-05-07T04:52:30;101434.84;;;4.93;55.78
74552;BME280;63025;55.472;38.432;2023-05-07T04:54:59;101432.44;;;5.09;55.62
74552;BME280;63025;55.472;38.432;2023-05-07T04:57:26;101431.91;;;5.15;55.18
74552;BME280;63025;55.472;38.432;2023-05-07T04:59:53;101439.91;;;5.06;54.67
74552;BME280;63025;55.472;38.432;2023-05-07T05:02:19;101431.47;;;5.10;54.53
74552;BME280;63025;55.472;38.432;2023-05-07T05:04:45;101435.41;;;5.16;54.18
74552;BME280;63025;55.472;38.432;2023-05-07T05:07:11;101436.53;;;5.33;54.27
74552;BME280;63025;55.472;38.432;2023-05-07T05:09:37;101441.16;;;5.50;53.66
74552;BME280;63025;55.472;38.432;2023-05-07T05:12:03;101447.19;;;5.33;52.85
74552;BME280;63025;55.472;38.432;2023-05-07T05:14:29;101433.72;;;5.44;53.05
74552;BME280;63025;55.472;38.432;2023-05-07T05:16:55;101443.25;;;5.56;52.73
74552;BME280;63025;55.472;38.432;2023-05-07T05:19:21;101442.41;;;5.46;52.31
74552;BME280;63025;55.472;38.432;2023-05-07T05:21:47;101445.88;;;5.66;51.99
74552;BME280;63025;55.472;38.432;2023-05-07T05:24:13;101448.66;;;5.74;51.54
74552;BME280;63025;55.472;38.432;2023-05-07T05:26:39;101442.91;;;5.98;51.41
74552;BME280;63025;55.472;38.432;2023-05-07T05:29:05;101444.44;;;6.00;50.41
74552;BME280;63025;55.472;38.432;2023-05-07T05:31:31;101451.31;;;5.83;49.44
74552;BME280;63025;55.472;38.432;2023-05-07T05:33:57;101452.34;;;5.53;49.58
74552;BME280;63025;55.472;38.432;2023-05-07T05:36:24;101463.75;;;5.36;49.57
74552;BME280;63025;55.472;38.432;2023-05-07T05:38:55;101451.13;;;5.29;50.16
74552;BME280;63025;55.472;38.432;2023-05-07T05:41:21;101459.25;;;5.27;49.86
74552;BME280;63025;55.472;38.432;2023-05-07T05:43:48;101449.84;;;5.23;50.35
74552;BME280;63025;55.472;38.432;2023-05-07T05:46:14;101459.25;;;5.37;49.06
74552;BME280;63025;55.472;38.432;2023-05-07T05:48:40;101459.19;;;5.75;49.40
74552;BME280;63025;55.472;38.432;2023-05-07T05:51:07;101457.31;;;6.05;48.45
74552;BME280;63025;55.472;38.432;2023-05-07T05:53:33;101462.78;;;6.22;47.63
74552;BME280;63025;55.472;38.432;2023-05-07T05:55:59;101459.09;;;6.23;47.01
74552;BME280;63025;55.472;38.432;2023-05-07T05:58:25;101461.94;;;6.22;46.89
74552;BME280;63025;55.472;38.432;2023-05-07T06:00:56;101461.19;;;6.30;46.96
74552;BME280;63025;55.472;38.432;2023-05-07T06:03:26;101471.78;;;6.12;46.31
74552;BME280;63025;55.472;38.432;2023-05-07T06:05:52;101473.91;;;6.08;46.06
74552;BME280;63025;55.472;38.432;2023-05-07T06:08:20;101464.78;;;6.11;46.14
74552;BME280;63025;55.472;38.432;2023-05-07T06:10:46;101471.16;;;6.28;45.78
74552;BME280;63025;55.472;38.432;2023-05-07T06:13:12;101469.44;;;6.36;45.82
74552;BME280;63025;55.472;38.432;2023-05-07T06:15:38;101471.63;;;6.50;45.38
74552;BME280;63025;55.472;38.432;2023-05-07T06:18:09;101466.97;;;6.80;44.97
74552;BME280;63025;55.472;38.432;2023-05-07T06:20:34;101463.94;;;6.92;44.05
74552;BME280;63025;55.472;38.432;2023-05-07T06:23:03;101473.34;;;7.14;43.44
74552;BME280;63025;55.472;38.432;2023-05-07T06:25:31;101461.69;;;7.59;42.89
74552;BME280;63025;55.472;38.432;2023-05-07T06:27:57;101470.91;;;7.82;42.39
74552;BME280;63025;55.472;38.432;2023-05-07T06:30:24;101472.09;;;8.05;42.60
74552;BME280;63025;55.472;38.432;2023-05-07T06:32:50;101457.47;;;8.26;41.65
74552;BME280;63025;55.472;38.432;2023-05-07T06:35:17;101457.28;;;8.53;41.14
74552;BME280;63025;55.472;38.432;2023-05-07T06:37:43;101456.09;;;8.48;40.05
74552;BME280;63025;55.472;38.432;2023-05-07T06:40:14;101461.63;;;8.54;40.02
74552;BME280;63025;55.472;38.432;2023-05-07T06:42:41;101463.41;;;8.79;40.73
74552;BME280;63025;55.472;38.432;2023-05-07T06:45:23;101455.69;;;8.76;39.93
74552;BME280;63025;55.472;38.432;2023-05-07T06:47:52;101459.16;;;8.61;39.42
74552;BME280;63025;55.472;38.432;2023-05-07T06:50:18;101462.72;;;8.35;39.42
74552;BME280;63025;55.472;38.432;2023-05-07T06:52:45;101460.38;;;8.06;40.42
74552;BME280;63025;55.472;38.432;2023-05-07T06:55:11;101470.06;;;7.56;39.82
74552;BME280;63025;55.472;38.432;2023-05-07T06:57:37;101472.91;;;7.36;40.53
74552;BME280;63025;55.472;38.432;2023-05-07T07:00:05;101470.16;;;7.46;40.07
74552;BME280;63025;55.472;38.432;2023-05-07T07:02:39;101481.34;;;7.50;40.09
74552;BME280;63025;55.472;38.432;2023-05-07T07:05:05;101482.44;;;7.39;40.05
74552;BME280;63025;55.472;38.432;2023-05-07T07:07:31;101479.44;;;7.60;39.65
74552;BME280;63025;55.472;38.432;2023-05-07T07:09:57;101468.63;;;7.87;39.53
74552;BME280;63025;55.472;38.432;2023-05-07T07:12:23;101472.03;;;7.97;39.39
74552;BME280;63025;55.472;38.432;2023-05-07T07:14:50;101462.19;;;7.80;39.44
74552;BME280;63025;55.472;38.432;2023-05-07T07:17:16;101464.06;;;7.62;38.83
74552;BME280;63025;55.472;38.432;2023-05-07T07:19:42;101471.41;;;7.60;39.42
74552;BME280;63025;55.472;38.432;2023-05-07T07:22:08;101473.72;;;7.55;39.13
74552;BME280;63025;55.472;38.432;2023-05-07T07:24:35;101467.88;;;7.77;38.93
74552;BME280;63025;55.472;38.432;2023-05-07T07:27:04;101463.63;;;8.18;38.51
74552;BME280;63025;55.472;38.432;2023-05-07T07:29:32;101474.22;;;8.28;37.70
74552;BME280;63025;55.472;38.432;2023-05-07T07:31:58;101465.00;;;8.56;37.25
74552;BME280;63025;55.472;38.432;2023-05-07T07:34:24;101470.00;;;9.01;36.59
74552;BME280;63025;55.472;38.432;2023-05-07T07:36:51;101463.00;;;9.25;36.66
74552;BME280;63025;55.472;38.432;2023-05-07T07:39:18;101454.63;;;9.28;35.48
74552;BME280;63025;55.472;38.432;2023-05-07T07:41:46;101462.84;;;9.50;36.10
74552;BME280;63025;55.472;38.432;2023-05-07T07:44:12;101464.81;;;9.16;35.70
74552;BME280;63025;55.472;38.432;2023-05-07T07:46:40;101455.38;;;8.88;36.08
74552;BME280;63025;55.472;38.432;2023-05-07T07:49:07;101466.81;;;9.14;36.34
74552;BME280;63025;55.472;38.432;2023-05-07T07:51:33;101463.34;;;9.62;36.07
74552;BME280;63025;55.472;38.432;2023-05-07T07:54:00;101457.81;;;9.55;34.65
74552;BME280;63025;55.472;38.432;2023-05-07T07:56:28;101461.00;;;9.43;34.96
74552;BME280;63025;55.472;38.432;2023-05-07T07:58:54;101454.66;;;9.44;34.68
74552;BME280;63025;55.472;38.432;2023-05-07T08:01:20;101459.16;;;9.51;34.56
74552;BME280;63025;55.472;38.432;2023-05-07T08:03:46;101457.13;;;9.45;34.63
74552;BME280;63025;55.472;38.432;2023-05-07T08:06:13;101453.63;;;9.45;34.88
74552;BME280;63025;55.472;38.432;2023-05-07T08:08:39;101460.63;;;9.05;34.61
74552;BME280;63025;55.472;38.432;2023-05-07T08:11:05;101456.56;;;8.93;35.02
74552;BME280;63025;55.472;38.432;2023-05-07T08:13:34;101458.50;;;8.67;34.42
74552;BME280;63025;55.472;38.432;2023-05-07T08:16:00;101449.94;;;9.30;34.11
74552;BME280;63025;55.472;38.432;2023-05-07T08:18:26;101450.38;;;10.06;33.81
74552;BME280;63025;55.472;38.432;2023-05-07T08:20:56;101450.38;;;10.92;33.11
74552;BME280;63025;55.472;38.432;2023-05-07T08:23:25;101462.44;;;11.27;32.79
74552;BME280;63025;55.472;38.432;2023-05-07T08:25:50;101448.06;;;10.89;31.92
74552;BME280;63025;55.472;38.432;2023-05-07T08:28:18;101450.50;;;10.29;31.66
74552;BME280;63025;55.472;38.432;2023-05-07T08:30:45;101459.09;;;10.00;32.09
74552;BME280;63025;55.472;38.432;2023-05-07T08:33:12;101452.63;;;9.70;32.84
74552;BME280;63025;55.472;38.432;2023-05-07T08:35:38;101448.75;;;9.81;32.47
74552;BME280;63025;55.472;38.432;2023-05-07T08:38:05;101453.22;;;10.60;31.69
74552;BME280;63025;55.472;38.432;2023-05-07T08:40:38;101446.34;;;11.19;31.42
74552;BME280;63025;55.472;38.432;2023-05-07T08:43:08;101449.28;;;11.10;30.63
74552;BME280;63025;55.472;38.432;2023-05-07T08:45:39;101458.66;;;10.83;30.85
74552;BME280;63025;55.472;38.432;2023-05-07T08:48:15;101443.91;;;11.10;30.73
74552;BME280;63025;55.472;38.432;2023-05-07T08:50:43;101446.59;;;11.10;30.55
74552;BME280;63025;55.472;38.432;2023-05-07T08:53:10;101435.41;;;13.05;29.33
74552;BME280;63025;55.472;38.432;2023-05-07T08:55:37;101433.22;;;14.14;27.88
74552;BME280;63025;55.472;38.432;2023-05-07T08:58:03;101431.81;;;13.62;26.91
74552;BME280;63025;55.472;38.432;2023-05-07T09:00:31;101443.47;;;13.20;26.91
74552;BME280;63025;55.472;38.432;2023-05-07T09:03:00;101436.75;;;13.80;26.80
74552;BME280;63025;55.472;38.432;2023-05-07T09:05:27;101445.38;;;13.69;26.41
74552;BME280;63025;55.472;38.432;2023-05-07T09:07:52;101433.69;;;12.83;26.86
74552;BME280;63025;55.472;38.432;2023-05-07T09:10:20;101446.50;;;12.16;27.76
74552;BME280;63025;55.472;38.432;2023-05-07T09:12:47;101447.56;;;11.54;28.46
74552;BME280;63025;55.472;38.432;2023-05-07T09:15:14;101452.50;;;11.28;28.97
74552;BME280;63025;55.472;38.432;2023-05-07T09:17:43;101448.41;;;11.77;28.97
74552;BME280;63025;55.472;38.432;2023-05-07T09:20:09;101456.34;;;13.03;27.81
74552;BME280;63025;55.472;38.432;2023-05-07T09:22:36;101435.88;;;13.30;27.03
74552;BME280;63025;55.472;38.432;2023-05-07T09:25:06;101445.94;;;13.85;25.58
74552;BME280;63025;55.472;38.432;2023-05-07T09:27:33;101441.47;;;15.75;24.50
74552;BME280;63025;55.472;38.432;2023-05-07T09:29:59;101434.81;;;16.68;22.79
74552;BME280;63025;55.472;38.432;2023-05-07T09:32:34;101433.84;;;17.64;22.00
74552;BME280;63025;55.472;38.432;2023-05-07T09:35:01;101445.50;;;16.50;22.30
74552;BME280;63025;55.472;38.432;2023-05-07T09:37:31;101445.44;;;14.38;23.94
74552;BME280;63025;55.472;38.432;2023-05-07T09:39:58;101441.38;;;13.37;25.22
74552;BME280;63025;55.472;38.432;2023-05-07T09:42:26;101427.25;;;12.63;25.70
74552;BME280;63025;55.472;38.432;2023-05-07T09:44:55;101435.84;;;12.22;26.59
74552;BME280;63025;55.472;38.432;2023-05-07T09:47:24;101438.97;;;11.96;26.27
74552;BME280;63025;55.472;38.432;2023-05-07T09:49:56;101449.25;;;11.78;26.10
74552;BME280;63025;55.472;38.432;2023-05-07T09:52:26;101439.50;;;13.86;24.97
74552;BME280;63025;55.472;38.432;2023-05-07T09:55:00;101433.72;;;17.14;23.56
74552;BME280;63025;55.472;38.432;2023-05-07T09:57:32;101454.50;;;18.14;21.68
74552;BME280;63025;55.472;38.432;2023-05-07T10:00:02;101432.69;;;19.47;21.37
74552;BME280;63025;55.472;38.432;2023-05-07T10:02:46;101422.91;;;20.04;19.38
74552;BME280;63025;55.472;38.432;2023-05-07T10:05:16;101434.13;;;18.60;19.50
74552;BME280;63025;55.472;38.432;2023-05-07T10:07:43;101435.63;;;16.75;20.87
74552;BME280;63025;55.472;38.432;2023-05-07T10:10:10;101438.16;;;16.64;20.81
74552;BME280;63025;55.472;38.432;2023-05-07T10:12:41;101425.84;;;17.06;20.54
74552;BME280;63025;55.472;38.432;2023-05-07T10:15:13;101442.56;;;18.52;19.79
74552;BME280;63025;55.472;38.432;2023-05-07T10:17:44;101431.66;;;20.30;19.16
74552;BME280;63025;55.472;38.432;2023-05-07T10:20:12;101428.88;;;21.50;17.54
74552;BME280;63025;55.472;38.432;2023-05-07T10:22:46;101421.25;;;22.84;17.29
74552;BME280;63025;55.472;38.432;2023-05-07T10:25:28;101428.50;;;23.22;16.63
74552;BME280;63025;55.472;38.432;2023-05-07T10:28:04;101434.44;;;22.05;16.68
74552;BME280;63025;55.472;38.432;2023-05-07T10:33:27;101433.63;;;18.81;18.55
74552;BME280;63025;55.472;38.432;2023-05-07T10:35:58;101427.56;;;17.32;19.62
74552;BME280;63025;55.472;38.432;2023-05-07T10:38:27;101434.78;;;15.84;20.30
74552;BME280;63025;55.472;38.432;2023-05-07T10:40:54;101432.44;;;15.15;21.35
74552;BME280;63025;55.472;38.432;2023-05-07T10:43:20;101427.97;;;14.81;21.94
74552;BME280;63025;55.472;38.432;2023-05-07T10:46:13;101436.91;;;15.56;22.19
74552;BME280;63025;55.472;38.432;2023-05-07T10:51:30;101429.50;;;18.79;19.34
74552;BME280;63025;55.472;38.432;2023-05-07T10:56:44;101429.78;;;18.52;20.06
74552;BME280;63025;55.472;38.432;2023-05-07T11:05:23;101448.34;;;15.97;20.47
74552;BME280;63025;55.472;38.432;2023-05-07T11:08:24;101432.09;;;15.71;20.83
74552;BME280;63025;55.472;38.432;2023-05-07T11:10:57;101431.81;;;15.13;21.05
74552;BME280;63025;55.472;38.432;2023-05-07T11:13:52;101426.81;;;15.23;21.57
74552;BME280;63025;55.472;38.432;2023-05-07T11:16:28;101423.50;;;15.48;21.09
74552;BME280;63025;55.472;38.432;2023-05-07T11:19:51;101431.63;;;15.34;21.59
74552;BME280;63025;55.472;38.432;2023-05-07T11:22:36;101426.03;;;14.62;22.20
74552;BME280;63025;55.472;38.432;2023-05-07T11:25:18;101440.22;;;14.02;22.59
74552;BME280;63025;55.472;38.432;2023-05-07T11:27:52;101432.94;;;13.46;23.01
74552;BME280;63025;55.472;38.432;2023-05-07T11:30:19;101441.22;;;13.45;23.77
74552;BME280;63025;55.472;38.432;2023-05-07T11:32:47;101441.47;;;13.07;23.63
74552;BME280;63025;55.472;38.432;2023-05-07T11:35:16;101438.88;;;12.48;24.17
74552;BME280;63025;55.472;38.432;2023-05-07T11:37:44;101443.91;;;12.37;24.79
74552;BME280;63025;55.472;38.432;2023-05-07T11:40:12;101444.56;;;12.39;24.86
74552;BME280;63025;55.472;38.432;2023-05-07T11:42:40;101440.47;;;12.28;24.84
74552;BME280;63025;55.472;38.432;2023-05-07T11:45:08;101443.56;;;13.12;24.73
74552;BME280;63025;55.472;38.432;2023-05-07T11:47:35;101435.63;;;15.98;23.70
74552;BME280;63025;55.472;38.432;2023-05-07T11:50:06;101436.50;;;16.56;22.61
74552;BME280;63025;55.472;38.432;2023-05-07T11:52:34;101443.06;;;16.29;22.42
74552;BME280;63025;55.472;38.432;2023-05-07T11:55:01;101441.84;;;15.39;22.13
74552;BME280;63025;55.472;38.432;2023-05-07T11:57:32;101433.75;;;14.30;22.51
74552;BME280;63025;55.472;38.432;2023-05-07T12:00:00;101443.22;;;13.85;23.64
74552;BME280;63025;55.472;38.432;2023-05-07T12:02:33;101437.72;;;13.51;23.52
74552;BME280;63025;55.472;38.432;2023-05-07T12:05:01;101441.78;;;13.40;24.14
74552;BME280;63025;55.472;38.432;2023-05-07T12:07:33;101448.03;;;13.19;24.87
74552;BME280;63025;55.472;38.432;2023-05-07T12:10:06;101448.81;;;12.99;24.98
74552;BME280;63025;55.472;38.432;2023-05-07T12:12:38;101440.78;;;12.84;25.01
74552;BME280;63025;55.472;38.432;2023-05-07T12:15:05;101442.78;;;12.97;25.02
74552;BME280;63025;55.472;38.432;2023-05-07T12:17:31;101445.56;;;14.57;24.26
74552;BME280;63025;55.472;38.432;2023-05-07T12:19:57;101441.84;;;16.82;22.81
74552;BME280;63025;55.472;38.432;2023-05-07T12:22:23;101452.69;;;18.81;21.07
74552;BME280;63025;55.472;38.432;2023-05-07T12:24:56;101438.50;;;19.09;20.09
74552;BME280;63025;55.472;38.432;2023-05-07T12:27:22;101432.97;;;20.50;19.36
74552;BME280;63025;55.472;38.432;2023-05-07T12:29:49;101430.91;;;20.69;18.68
74552;BME280;63025;55.472;38.432;2023-05-07T12:32:21;101428.13;;;20.41;18.10
74552;BME280;63025;55.472;38.432;2023-05-07T12:34:51;101426.69;;;20.38;18.00
74552;BME280;63025;55.472;38.432;2023-05-07T12:37:23;101428.47;;;20.44;18.29
74552;BME280;63025;55.472;38.432;2023-05-07T12:40:03;101430.63;;;19.72;18.55
74552;BME280;63025;55.472;38.432;2023-05-07T12:42:39;101432.13;;;19.57;18.52
74552;BME280;63025;55.472;38.432;2023-05-07T12:45:12;101417.78;;;19.73;18.99
74552;BME280;63025;55.472;38.432;2023-05-07T12:47:39;101429.13;;;18.57;18.90
74552;BME280;63025;55.472;38.432;2023-05-07T12:50:06;101424.97;;;17.75;19.85
74552;BME280;63025;55.472;38.432;2023-05-07T12:52:33;101413.72;;;17.08;20.16
74552;BME280;63025;55.472;38.432;2023-05-07T12:55:05;101425.97;;;16.28;20.76
74552;BME280;63025;55.472;38.432;2023-05-07T12:57:38;101428.28;;;15.32;21.57
74552;BME280;63025;55.472;38.432;2023-05-07T13:00:05;101429.84;;;14.81;21.94
74552;BME280;63025;55.472;38.432;2023-05-07T13:02:42;101428.84;;;14.41;22.57
74552;BME280;63025;55.472;38.432;2023-05-07T13:05:11;101432.56;;;13.77;22.88